Flight Track Log - Related Links

Times and Time Zones

All times are in EDT time to prevent confusion due to time zone crossing. See the SKW5476 flight status page for this flight to view local times or setup timezone preferences in your user account.

Time Position Orientation Groundspeed Altitude Reporting Facility
EDT Latitude Longitude Course Direction KTS MPH feet Rate Location/Type
Sat 03:43:38 PM 37.6500 -122.3667 North 138 159 1,400  Level Northern Cal TRACON
Sat 03:44:24 PM 37.6719 -122.3681 357° North 169 194 2,100 1,278 Climbing Oakland Center
Sat 03:45:26 PM 37.7225 -122.3631 North 180 207 3,700 1,756 Climbing Oakland Center
Sat 03:46:00 PM 37.8503 -122.3667 North  Level FlightAware Approximate
Sat 03:46:27 PM 37.7819 -122.3753 351° North 180 207 5,700  Level Oakland Center
Sat 03:47:00 PM 37.9272 -122.3813 345° North  Level FlightAware Approximate
Sat 03:47:28 PM 37.8356 -122.3811 355° North 190 219 7,300  Level Oakland Center
Sat 03:48:00 PM 38.0009 -122.3667 North  Level FlightAware Approximate
Sat 03:48:30 PM 37.8908 -122.3819 359° North 198 228 8,800  Level Oakland Center
Sat 03:49:31 PM 37.9467 -122.3828 359° North 202 232 10,600 1,672 Climbing Oakland Center
Sat 03:50:32 PM 37.9992 -122.3825 360° North 191 220 12,200 1,463 Climbing Oakland Center
Sat 03:51:34 PM 38.0533 -122.3728 North 195 224 13,600 1,317 Climbing Oakland Center
Sat 03:52:35 PM 38.1078 -122.3619 North 198 228 14,900 1,426 Climbing Oakland Center
Sat 03:53:36 PM 38.1719 -122.3503 North 195 224 16,500 1,268 Climbing Oakland Center
Sat 03:54:38 PM 38.2258 -122.3419 North 198 228 17,500 878 Climbing Oakland Center
Sat 03:55:39 PM 38.2828 -122.3306 North 207 238 18,300 934 Climbing Oakland Center
Sat 03:56:40 PM 38.3406 -122.3206 North 208 239 19,400 1,033 Climbing Oakland Center
Sat 03:57:41 PM 38.3994 -122.3092 North 212 244 20,400 885 Climbing Oakland Center
Sat 03:58:42 PM 38.4583 -122.2992 North 215 247 21,200 829 Climbing Oakland Center
Sat 03:59:44 PM 38.5203 -122.2886 North 222 255 22,100 829 Climbing Oakland Center
Sat 04:00:45 PM 38.5814 -122.2761 North 224 258 22,900 787 Climbing Oakland Center
Sat 04:01:46 PM 38.6414 -122.2650 North 221 254 23,700 541 Climbing Oakland Center
Sat 04:02:47 PM 38.7081 -122.2550 North 227 261 24,000 146 Climbing Oakland Center
Sat 04:03:49 PM 38.7781 -122.2422 North 249 287 24,000  Level Oakland Center
Sat 04:04:50 PM 38.8506 -122.2286 North 259 298 24,000  Level Oakland Center
Sat 04:05:51 PM 38.9356 -122.2136 North 255 293 24,000  Level Oakland Center
Sat 04:06:52 PM 39.0056 -122.2003 North 252 290 24,000  Level Oakland Center
Sat 04:07:53 PM 39.0758 -122.1867 North 252 290 24,000  Level Oakland Center
Sat 04:08:55 PM 39.1458 -122.1739 North 252 290 24,000  Level Oakland Center
Sat 04:09:56 PM 39.2164 -122.1603 North 254 292 24,000  Level Oakland Center
Sat 04:10:57 PM 39.2869 -122.1469 North 254 292 24,000  Level Oakland Center
Sat 04:11:58 PM 39.3564 -122.1333 North 252 290 24,000  Level Oakland Center
Sat 04:13:00 PM 39.4264 -122.1208 North 252 290 24,000  Level Oakland Center
Sat 04:14:01 PM 39.4992 -122.1083 North 248 285 24,000  Level Oakland Center
Sat 04:15:02 PM 39.5686 -122.0947 North 249 287 24,000  Level Oakland Center
Sat 04:16:03 PM 39.6378 -122.0819 North 250 288 24,000  Level Oakland Center
Sat 04:17:04 PM 39.7064 -122.0681 North 249 287 24,000  Level Oakland Center
Sat 04:18:06 PM 39.7764 -122.0558 North 252 290 24,000  Level Oakland Center
Sat 04:19:07 PM 39.8456 -122.0428 North 251 289 24,000  Level Oakland Center
Sat 04:20:08 PM 39.9289 -122.0267 North 253 291 24,000  Level Oakland Center
Sat 04:21:09 PM 39.9983 -122.0128 North 253 291 24,000  Level Oakland Center
Sat 04:22:11 PM 40.0672 -121.9992 North 252 290 24,000  Level Oakland Center
Sat 04:23:12 PM 40.1367 -121.9850 North 253 291 24,000  Level Oakland Center
Sat 04:24:13 PM 40.2058 -121.9731 North 254 292 24,000  Level Oakland Center
Sat 04:25:14 PM 40.2753 -121.9608 North 254 292 24,000  Level Oakland Center
Sat 04:26:16 PM 40.3453 -121.9481 North 255 293 24,000  Level Oakland Center
Sat 04:27:17 PM 40.4294 -121.9306 North 256 295 24,000  Level Oakland Center
Sat 04:28:18 PM 40.4994 -121.9164 North 256 295 24,000  Level Oakland Center
Sat 04:29:20 PM 40.5697 -121.9039 North 257 296 24,000  Level Oakland Center
Sat 04:30:21 PM 40.6394 -121.8906 North 255 293 24,000  Level Oakland Center
Sat 04:31:22 PM 40.7097 -121.8772 North 256 295 24,000  Level Oakland Center
Sat 04:32:23 PM 40.7797 -121.8639 North 255 293 24,000  Level Oakland Center
Sat 04:33:24 PM 40.8497 -121.8503 North 255 293 24,000  Level Oakland Center
Sat 04:34:26 PM 40.9200 -121.8369 North 257 296 24,000  Level Oakland Center
Sat 04:35:27 PM 40.9897 -121.8222 North 255 293 24,000  Level Oakland Center
Sat 04:36:28 PM 41.0739 -121.8061 North 255 293 24,000  Level Oakland Center
Sat 04:37:29 PM 41.1333 -121.7981 North 257 296 24,000  Level Oakland Center
Sat 04:37:47 PM 41.1608 -121.7919 North 254 292 24,000  Level Seattle Center
Sat 04:38:48 PM 41.2308 -121.7778 North 255 293 24,000  Level Seattle Center
Sat 04:39:48 PM 41.3006 -121.7642 North 253 291 24,000  Level Seattle Center
Sat 04:40:49 PM 41.3714 -121.7506 North 257 296 24,000  Level Seattle Center
Sat 04:41:50 PM 41.4419 -121.7364 North 256 295 24,000  Level Seattle Center
Sat 04:42:51 PM 41.5119 -121.7217 North 256 295 24,000  Level Seattle Center
Sat 04:43:51 PM 41.5825 -121.7075 North 258 297 24,000  Level Seattle Center
Sat 04:44:52 PM 41.6542 -121.6931 North 260 299 24,000  Level Seattle Center
Sat 04:45:53 PM 41.7242 -121.6808 North 258 297 24,000  Level Seattle Center
Sat 04:46:54 PM 41.7939 -121.6658 North 256 295 24,000  Level Seattle Center
Sat 04:47:55 PM 41.8767 -121.6492 North 253 291 24,000  Level Seattle Center
Sat 04:48:55 PM 41.9469 -121.6356 North 257 296 24,000  Level Seattle Center
Sat 04:49:56 PM 42.0161 -121.6200 North 256 295 24,000  Level Seattle Center
Sat 04:50:57 PM 42.0856 -121.6056 North 256 295 24,000  Level Seattle Center
Sat 04:51:58 PM 42.1550 -121.5919 North 255 293 24,000  Level Seattle Center
Sat 04:52:59 PM 42.2250 -121.5789 North 255 293 24,000  Level Seattle Center
Sat 04:54:00 PM 42.2961 -121.5633 North 258 297 24,000  Level Seattle Center
Sat 04:55:00 PM 42.3672 -121.5486 North 260 299 24,000  Level Seattle Center
Sat 04:56:01 PM 42.4381 -121.5331 North 259 298 24,000  Level Seattle Center
Sat 04:57:02 PM 42.5083 -121.5192 North 257 296 24,000  Level Seattle Center
Sat 04:58:03 PM 42.5803 -121.5053 North 259 298 24,000  Level Seattle Center
Sat 04:59:04 PM 42.6511 -121.4889 10° North 260 299 24,000 -347 Level Seattle Center
Sat 05:00:04 PM 42.7389 -121.4711 North 264 304 23,300 -893 Descending Seattle Center
Sat 05:01:05 PM 42.8217 -121.4550 North 295 339 22,200 -1,230 Descending Seattle Center
Sat 05:02:06 PM 42.9006 -121.4344 11° North 292 336 20,800 -1,475 Descending Seattle Center
Sat 05:03:07 PM 42.9739 -121.3925 23° Northeast 287 330 19,200 -1,426 Descending Seattle Center
Sat 05:04:08 PM 43.0475 -121.3583 19° North 281 323 17,900 -1,140 Descending Seattle Center
Sat 05:05:08 PM 43.1183 -121.3233 20° North 274 315 16,900 -1,140 Descending Seattle Center
Sat 05:06:09 PM 43.1875 -121.2908 19° North 267 307 15,600 -1,328 Descending Seattle Center
Sat 05:07:10 PM 43.2578 -121.2672 14° North 262 302 14,200 -1,377 Descending Seattle Center
Sat 05:08:11 PM 43.3267 -121.2628 North 252 290 12,800 -1,033 Descending Seattle Center
Sat 05:09:12 PM 43.3964 -121.2556 North 250 288 12,100 -397 Descending Seattle Center
Sat 05:10:12 PM 43.4656 -121.2456 North 251 289 12,000 -50 Descending Seattle Center
Sat 05:11:13 PM 43.5325 -121.2375 North 245 282 12,000  Level Seattle Center
Sat 05:12:14 PM 43.5936 -121.2322 North 225 259 12,000  Level Seattle Center
Sat 05:13:15 PM 43.6536 -121.2256 North 218 251 12,000  Level Seattle Center
Sat 05:14:16 PM 43.7142 -121.2175 North 218 251 12,000 -49 Level Seattle Center
Sat 05:15:17 PM 43.7772 -121.2108 North 222 255 11,900 -893 Descending Seattle Center
Sat 05:16:17 PM 43.8561 -121.1969 North 234 269 10,200 -1,240 Descending Seattle Center
Sat 05:17:18 PM 43.9222 -121.1906 North 238 274 9,400 -1,033 Descending Seattle Center
Sat 05:18:19 PM 43.9842 -121.1822 North 228 262 8,100 -934 Descending Seattle Center
Sat 05:19:20 PM 44.0436 -121.1756 North 220 253 7,500 -492 Descending Seattle Center
Sat 05:20:21 PM 44.1039 -121.1686 North 218 251 7,100 -393 Descending Seattle Center

Login

Don't have an account? Register now (free) for customized features, flight alerts, and more!